TimeCDT,TemperatureF,Dew PointF,Humidity,Sea Level PressureIn,VisibilityMPH,Wind Direction,Wind SpeedMPH,Gust SpeedMPH,PrecipitationIn,Events,Conditions,WindDirDegrees,DateUTC
12:15 AM,33.8,26.4,74,29.94,10.0,North,26.5,34.5,N/A,,Overcast,360,2014-04-14 05:15:00
12:35 AM,33.8,26.4,74,29.95,10.0,North,28.8,35.7,N/A,,Overcast,350,2014-04-14 05:35:00
12:38 AM,33.8,26.6,75,29.95,10.0,NNW,29.9,39.1,N/A,,Overcast,340,2014-04-14 05:38:00
12:55 AM,33.8,25.9,73,29.96,10.0,North,27.6,38.0,N/A,,Overcast,350,2014-04-14 05:55:00
1:15 AM,33.4,25.7,73,29.98,10.0,North,28.8,35.7,N/A,,Overcast,360,2014-04-14 06:15:00
1:35 AM,33.3,26.1,75,29.99,10.0,North,25.3,29.9,N/A,,Overcast,350,2014-04-14 06:35:00
1:39 AM,33.8,26.6,75,29.99,10.0,NNW,28.8,-,N/A,,Overcast,340,2014-04-14 06:39:00
1:55 AM,33.1,25.3,73,29.99,10.0,North,28.8,35.7,N/A,,Overcast,360,2014-04-14 06:55:00
2:15 AM,32.9,25.0,73,29.98,10.0,North,33.4,39.1,N/A,,Overcast,360,2014-04-14 07:15:00
2:35 AM,32.4,24.4,73,29.98,10.0,North,32.2,44.9,N/A,,Overcast,360,2014-04-14 07:35:00
2:55 AM,32.0,25.2,76,29.98,10.0,North,24.2,31.1,N/A,,Overcast,350,2014-04-14 07:55:00
3:15 AM,32.0,24.3,73,30.01,10.0,North,26.5,39.1,N/A,,Overcast,360,2014-04-14 08:15:00
3:35 AM,32.0,24.6,74,30.01,10.0,North,29.9,35.7,N/A,,Overcast,350,2014-04-14 08:35:00
3:55 AM,31.6,23.4,71,30.01,10.0,North,33.4,42.6,N/A,,Overcast,360,2014-04-14 08:55:00
4:15 AM,31.5,23.4,72,30.03,10.0,North,29.9,36.8,N/A,,Overcast,350,2014-04-14 09:15:00
4:35 AM,31.3,23.2,72,30.05,10.0,North,28.8,38.0,N/A,,Overcast,350,2014-04-14 09:35:00
4:55 AM,30.9,23.5,74,30.06,10.0,North,24.2,-,N/A,,Overcast,350,2014-04-14 09:55:00
5:15 AM,30.7,22.8,72,30.07,10.0,North,24.2,34.5,N/A,,Overcast,350,2014-04-14 10:15:00
5:35 AM,30.6,21.7,70,30.09,10.0,North,26.5,33.4,N/A,,Overcast,350,2014-04-14 10:35:00
5:55 AM,30.2,22.1,72,30.08,10.0,North,21.9,31.1,N/A,,Overcast,350,2014-04-14 10:55:00
6:15 AM,29.8,21.6,71,30.09,10.0,North,24.2,29.9,N/A,,Overcast,350,2014-04-14 11:15:00
6:35 AM,29.7,21.4,71,30.10,10.0,North,23.0,28.8,N/A,,Overcast,350,2014-04-14 11:35:00
6:55 AM,29.3,20.7,70,30.12,10.0,NNW,23.0,27.6,N/A,,Overcast,340,2014-04-14 11:55:00
7:15 AM,29.3,19.8,68,30.13,10.0,North,24.2,33.4,N/A,,Overcast,350,2014-04-14 12:15:00
7:35 AM,29.1,20.3,70,30.12,10.0,North,23.0,29.9,N/A,,Overcast,350,2014-04-14 12:35:00
7:55 AM,29.3,20.3,69,30.14,10.0,NNW,23.0,29.9,N/A,,Overcast,340,2014-04-14 12:55:00
8:15 AM,29.3,20.1,69,30.16,10.0,NNW,23.0,27.6,N/A,,Overcast,340,2014-04-14 13:15:00
8:35 AM,29.3,19.2,66,30.17,10.0,North,24.2,28.8,N/A,,Overcast,350,2014-04-14 13:35:00
8:55 AM,29.3,19.6,67,30.17,10.0,North,19.6,25.3,N/A,,Overcast,350,2014-04-14 13:55:00
9:15 AM,30.0,19.4,65,30.17,10.0,North,18.4,25.3,N/A,,Overcast,350,2014-04-14 14:15:00
9:35 AM,30.6,19.9,65,30.18,10.0,NNW,20.7,25.3,N/A,,Overcast,340,2014-04-14 14:35:00
9:55 AM,31.1,19.6,62,30.19,10.0,North,19.6,-,N/A,,Overcast,350,2014-04-14 14:55:00
10:15 AM,31.1,19.4,62,30.19,10.0,North,19.6,-,N/A,,Overcast,350,2014-04-14 15:15:00
10:35 AM,31.8,19.2,60,30.20,10.0,NNW,17.3,24.2,N/A,,Overcast,340,2014-04-14 15:35:00
10:55 AM,32.0,19.9,61,30.21,10.0,NNW,17.3,-,N/A,,Mostly Cloudy,340,2014-04-14 15:55:00
11:15 AM,32.0,19.9,61,30.21,10.0,NNW,18.4,-,N/A,,Scattered Clouds,340,2014-04-14 16:15:00
11:35 AM,32.9,20.8,61,30.22,10.0,NNW,19.6,-,N/A,,Mostly Cloudy,330,2014-04-14 16:35:00
11:55 AM,34.0,20.8,59,30.23,10.0,NNW,18.4,-,N/A,,Scattered Clouds,330,2014-04-14 16:55:00
12:35 PM,35.2,21.6,58,30.22,10.0,NNW,17.3,25.3,N/A,,Clear,340,2014-04-14 17:35:00
12:55 PM,37.0,21.9,54,30.22,10.0,NNW,18.4,24.2,N/A,,Clear,340,2014-04-14 17:55:00
1:15 PM,38.3,21.6,51,30.21,10.0,NNW,19.6,25.3,N/A,,Clear,340,2014-04-14 18:15:00
1:35 PM,39.7,23.9,53,30.20,10.0,NNW,18.4,25.3,N/A,,Clear,330,2014-04-14 18:35:00
1:55 PM,40.1,23.4,51,30.20,10.0,NW,16.1,21.9,N/A,,Clear,320,2014-04-14 18:55:00
2:15 PM,40.5,21.9,48,30.20,10.0,NNW,13.8,25.3,N/A,,Clear,330,2014-04-14 19:15:00
2:35 PM,41.5,21.4,45,30.20,10.0,North,17.3,23.0,N/A,,Clear,350,2014-04-14 19:35:00
2:55 PM,41.9,19.6,41,30.20,10.0,North,17.3,21.9,N/A,,Clear,350,2014-04-14 19:55:00
3:15 PM,42.8,18.7,38,30.19,10.0,NW,15.0,-,N/A,,Clear,310,2014-04-14 20:15:00
3:35 PM,43.5,20.1,39,30.18,10.0,NNW,13.8,26.5,N/A,,Clear,330,2014-04-14 20:35:00
3:55 PM,43.0,18.5,37,30.17,10.0,NNW,13.8,21.9,N/A,,Clear,330,2014-04-14 20:55:00
4:15 PM,43.9,19.6,38,30.17,10.0,NW,15.0,-,N/A,,Clear,320,2014-04-14 21:15:00
4:35 PM,43.9,19.2,37,30.16,10.0,NW,15.0,21.9,N/A,,Clear,320,2014-04-14 21:35:00
4:55 PM,44.4,19.9,38,30.15,10.0,NW,13.8,23.0,N/A,,Clear,320,2014-04-14 21:55:00
5:15 PM,44.4,19.6,37,30.15,10.0,NW,15.0,21.9,N/A,,Clear,320,2014-04-14 22:15:00
5:35 PM,45.0,20.7,38,30.14,10.0,NNW,15.0,23.0,N/A,,Clear,330,2014-04-14 22:35:00
5:55 PM,44.1,20.7,39,30.14,10.0,NW,12.7,19.6,N/A,,Clear,320,2014-04-14 22:55:00
6:15 PM,42.8,21.7,43,30.13,10.0,NNW,8.1,-,N/A,,Scattered Clouds,330,2014-04-14 23:15:00
6:35 PM,42.8,22.3,44,30.13,10.0,NNW,10.4,19.6,N/A,,Scattered Clouds,330,2014-04-14 23:35:00
6:55 PM,42.6,23.0,46,30.14,10.0,NNW,11.5,-,N/A,,Overcast,330,2014-04-14 23:55:00
7:15 PM,36.5,32.9,87,30.15,5.0,NW,12.7,-,N/A,Rain,Light Rain,310,2014-04-15 00:15:00
7:35 PM,35.6,32.7,89,30.14,7.0,NNE,4.6,-,0.01,Rain,Light Rain,20,2014-04-15 00:35:00
7:55 PM,34.7,32.0,90,30.14,10.0,NNE,3.5,-,0.01,,Scattered Clouds,30,2014-04-15 00:55:00
8:15 PM,34.9,32.0,89,30.13,10.0,Calm,Calm,-,N/A,,Clear,0,2014-04-15 01:15:00
8:35 PM,34.5,32.0,90,30.13,10.0,Calm,Calm,-,N/A,,Clear,0,2014-04-15 01:35:00
8:55 PM,33.8,32.5,95,30.14,7.0,Calm,Calm,-,N/A,,Clear,0,2014-04-15 01:55:00
9:15 PM,32.7,32.0,97,30.15,1.2,Calm,Calm,-,N/A,,Mist,0,2014-04-15 02:15:00
9:35 PM,31.5,30.6,96,30.16,3.0,Calm,Calm,-,N/A,,Clear,0,2014-04-15 02:35:00
9:55 PM,32.0,31.3,97,30.16,3.0,Calm,Calm,-,N/A,,Clear,0,2014-04-15 02:55:00
10:15 PM,29.3,28.6,97,30.17,0.2,Calm,Calm,-,N/A,Fog,Light Freezing Fog,0,2014-04-15 03:15:00
10:35 PM,27.0,26.4,98,30.17,0.2,Calm,Calm,-,N/A,Fog,Light Freezing Fog,0,2014-04-15 03:35:00
10:55 PM,26.6,26.6,100,30.18,1.2,Calm,Calm,-,N/A,,Mist,0,2014-04-15 03:55:00
11:15 PM,25.9,25.2,97,30.18,0.2,Calm,Calm,-,N/A,Fog,Light Freezing Fog,0,2014-04-15 04:15:00
11:35 PM,24.6,23.7,96,30.18,0.5,Calm,Calm,-,N/A,Fog,Light Freezing Fog,0,2014-04-15 04:35:00
11:55 PM,24.8,24.8,100,30.18,0.5,Calm,Calm,-,N/A,Fog,Light Freezing Fog,0,2014-04-15 04:55:00